createdAt,value
2023-05-15T00:02:12.893Z,23.45
2023-05-15T00:04:39.801Z,23.52
2023-05-15T00:07:06.678Z,23.60
2023-05-15T00:09:33.546Z,24.52
2023-05-15T00:12:00.324Z,23.20
2023-05-15T00:14:27.078Z,24.98
2023-05-15T00:16:53.972Z,24.13
2023-05-15T00:19:20.935Z,22.38
2023-05-15T00:21:47.849Z,23.77
2023-05-15T00:24:14.715Z,23.67
2023-05-15T00:26:41.520Z,22.98
2023-05-15T00:29:08.305Z,25.75
2023-05-15T00:31:35.212Z,24.30
2023-05-15T00:34:02.068Z,31.20
2023-05-15T00:36:29.600Z,26.85
2023-05-15T00:38:56.469Z,24.13
2023-05-15T00:41:28.543Z,26.25
2023-05-15T00:43:56.365Z,25.50
2023-05-15T00:46:24.727Z,27.98
2023-05-15T00:48:52.553Z,27.60
2023-05-15T00:51:19.479Z,26.02
2023-05-15T00:53:46.369Z,28.17
2023-05-15T00:56:13.406Z,27.13
2023-05-15T00:58:41.886Z,28.30
2023-05-15T01:01:08.893Z,25.20
2023-05-15T01:03:37.549Z,29.88
2023-05-15T01:06:04.809Z,29.95
2023-05-15T01:08:47.651Z,30.75
2023-05-15T01:11:16.590Z,30.48
2023-05-15T01:13:44.400Z,28.40
2023-05-15T01:16:11.575Z,31.50
2023-05-15T01:18:38.570Z,34.70
2023-05-15T01:21:31.855Z,32.53
2023-05-15T01:24:26.235Z,34.42
2023-05-15T01:27:17.461Z,31.13
2023-05-15T01:30:08.143Z,31.92
2023-05-15T01:32:43.184Z,34.38
2023-05-15T01:35:23.596Z,33.58
2023-05-15T01:38:11.409Z,35.97
2023-05-15T01:40:38.583Z,36.15
2023-05-15T01:43:12.179Z,38.05
2023-05-15T01:45:42.518Z,44.05
2023-05-15T01:48:12.332Z,37.92
2023-05-15T01:50:41.354Z,40.53
2023-05-15T01:53:10.399Z,41.25
2023-05-15T01:55:38.902Z,39.80
2023-05-15T01:58:06.586Z,40.50
2023-05-15T02:00:34.582Z,42.95
2023-05-15T02:03:02.703Z,40.97
2023-05-15T02:05:30.880Z,41.05
2023-05-15T02:07:59.110Z,42.13
2023-05-15T02:10:26.729Z,39.20
2023-05-15T02:12:54.928Z,39.25
2023-05-15T02:15:24.386Z,40.47
2023-05-15T02:17:51.398Z,41.20
2023-05-15T02:20:18.277Z,40.00
2023-05-15T02:22:45.304Z,38.42
2023-05-15T02:25:12.114Z,38.45
2023-05-15T02:28:00.757Z,37.88
2023-05-15T02:30:52.263Z,36.92
2023-05-15T02:33:50.045Z,35.85
2023-05-15T02:36:28.601Z,38.03
2023-05-15T02:38:59.154Z,37.78
2023-05-15T02:41:26.756Z,38.22
2023-05-15T02:43:55.363Z,37.35
2023-05-15T02:46:25.019Z,36.92
2023-05-15T02:48:54.491Z,35.78
2023-05-15T02:51:22.064Z,35.08
2023-05-15T02:53:49.732Z,36.00
2023-05-15T02:56:16.567Z,33.97
2023-05-15T02:58:43.536Z,35.17
2023-05-15T03:01:10.392Z,35.42
2023-05-15T03:03:37.327Z,34.58
2023-05-15T03:06:04.270Z,36.45
2023-05-15T03:08:31.078Z,40.17
2023-05-15T03:10:58.293Z,39.92
2023-05-15T03:13:25.330Z,38.40
2023-05-15T03:15:53.357Z,40.70
2023-05-15T03:18:20.612Z,40.95
2023-05-15T03:20:49.110Z,46.80
2023-05-15T03:23:16.064Z,43.80
2023-05-15T03:25:42.918Z,42.70
2023-05-15T03:28:09.925Z,41.55
2023-05-15T03:30:36.810Z,44.10
2023-05-15T03:33:04.106Z,38.30
2023-05-15T03:35:32.303Z,43.40
2023-05-15T03:37:59.104Z,41.00
2023-05-15T03:40:25.944Z,39.88
2023-05-15T03:42:53.509Z,36.10
2023-05-15T03:45:21.087Z,45.08
2023-05-15T03:47:49.150Z,38.75
2023-05-15T03:50:16.400Z,35.70
2023-05-15T03:52:43.372Z,37.85
2023-05-15T03:55:10.384Z,41.42
2023-05-15T03:57:37.294Z,39.25
2023-05-15T04:00:09.923Z,40.20
2023-05-15T04:02:41.012Z,45.30
2023-05-15T04:05:08.983Z,42.58
2023-05-15T04:07:37.187Z,44.65
2023-05-15T04:10:04.637Z,45.75
2023-05-15T04:12:34.903Z,48.95
2023-05-15T04:15:23.366Z,52.92
2023-05-15T04:17:53.418Z,54.30
2023-05-15T04:20:23.477Z,53.05
2023-05-15T04:22:51.635Z,57.22
2023-05-15T04:25:20.109Z,50.78
2023-05-15T04:27:47.546Z,55.10
2023-05-15T04:30:14.475Z,54.78
2023-05-15T04:32:42.276Z,53.50
2023-05-15T04:35:11.694Z,53.13
2023-05-15T04:37:40.217Z,55.88
2023-05-15T04:40:08.374Z,57.72
2023-05-15T04:42:37.742Z,52.88
2023-05-15T04:45:07.369Z,57.90
2023-05-15T04:47:34.539Z,53.58
2023-05-15T04:50:01.726Z,54.58
2023-05-15T04:52:28.558Z,54.60
2023-05-15T04:54:55.831Z,54.97
2023-05-15T04:57:23.040Z,52.22
2023-05-15T04:59:50.118Z,52.78
2023-05-15T05:02:21.224Z,48.63
2023-05-15T05:04:48.398Z,54.72
2023-05-15T05:07:15.658Z,48.30
2023-05-15T05:09:42.667Z,43.00
2023-05-15T05:12:10.463Z,42.95
2023-05-15T05:14:37.462Z,36.83
2023-05-15T05:17:04.558Z,38.55
2023-05-15T05:19:31.398Z,36.33
2023-05-15T05:22:01.364Z,34.30
2023-05-15T05:24:28.486Z,33.17
2023-05-15T05:26:58.073Z,34.80
2023-05-15T05:29:26.004Z,36.33
2023-05-15T05:31:53.469Z,34.45
2023-05-15T05:34:20.733Z,39.67
2023-05-15T05:36:47.796Z,39.20
2023-05-15T05:39:16.868Z,39.10
2023-05-15T05:41:44.263Z,40.38
2023-05-15T05:44:11.430Z,39.85
2023-05-15T05:46:38.280Z,38.00
2023-05-15T05:49:05.458Z,39.00
2023-05-15T05:51:32.409Z,39.67
2023-05-15T05:53:59.125Z,40.67
2023-05-15T05:56:26.492Z,40.15
2023-05-15T05:58:53.537Z,39.25
2023-05-15T06:01:21.100Z,29.33
2023-05-15T06:03:48.075Z,32.28
2023-05-15T06:06:15.000Z,27.45
2023-05-15T06:08:41.784Z,26.02
2023-05-15T06:11:08.576Z,25.42
2023-05-15T06:13:35.810Z,26.63
2023-05-15T06:16:02.672Z,28.33
2023-05-15T06:18:29.669Z,24.98
2023-05-15T06:20:58.709Z,30.02
2023-05-15T06:23:26.577Z,29.55
2023-05-15T06:25:53.607Z,25.98
2023-05-15T06:28:20.520Z,32.30
2023-05-15T06:30:47.332Z,26.65
2023-05-15T06:33:14.224Z,25.08
2023-05-15T06:35:41.225Z,23.20
2023-05-15T06:38:08.135Z,22.83
2023-05-15T06:40:35.171Z,24.58
2023-05-15T06:43:01.997Z,23.48
2023-05-15T06:45:28.980Z,26.25
2023-05-15T06:47:56.092Z,24.63
2023-05-15T06:50:23.471Z,19.17
2023-05-15T06:52:50.212Z,21.27
2023-05-15T06:55:17.057Z,19.27
2023-05-15T06:57:43.777Z,19.23
2023-05-15T07:00:11.473Z,20.95
2023-05-15T07:02:38.353Z,19.92
2023-05-15T07:05:06.772Z,19.85
2023-05-15T07:07:33.638Z,19.55
2023-05-15T07:10:00.358Z,20.90
2023-05-15T07:12:27.221Z,18.95
2023-05-15T07:14:54.193Z,20.08
2023-05-15T07:17:21.018Z,22.75
2023-05-15T07:19:47.897Z,21.45
2023-05-15T07:22:14.744Z,20.77
2023-05-15T07:24:41.578Z,24.25
2023-05-15T07:27:08.403Z,23.65
2023-05-15T07:29:35.199Z,23.17
2023-05-15T07:32:01.992Z,22.33
2023-05-15T07:34:28.743Z,21.42
2023-05-15T07:36:55.522Z,22.30
2023-05-15T07:39:22.327Z,23.63
2023-05-15T07:41:49.297Z,25.45
2023-05-15T07:44:16.135Z,25.65
2023-05-15T07:46:43.122Z,21.90
2023-05-15T07:49:10.023Z,22.70
2023-05-15T07:51:36.857Z,22.88
2023-05-15T07:54:04.601Z,23.77
2023-05-15T07:56:32.532Z,25.63
2023-05-15T07:58:59.332Z,23.50
2023-05-15T08:01:26.205Z,25.52
2023-05-15T08:03:53.136Z,27.73
2023-05-15T08:06:20.169Z,25.20
2023-05-15T08:08:46.965Z,25.73
2023-05-15T08:11:13.894Z,25.08
2023-05-15T08:13:40.768Z,23.13
2023-05-15T08:16:07.666Z,25.00
2023-05-15T08:18:34.564Z,26.10
2023-05-15T08:21:02.949Z,24.67
2023-05-15T08:23:30.904Z,24.77
2023-05-15T08:25:57.675Z,22.38
2023-05-15T08:28:24.571Z,21.13
2023-05-15T08:30:51.385Z,23.70
2023-05-15T08:33:18.216Z,22.20
2023-05-15T08:35:44.994Z,20.88
2023-05-15T08:38:11.850Z,21.55
2023-05-15T08:40:40.861Z,22.38
2023-05-15T08:43:15.128Z,23.50
2023-05-15T08:45:43.126Z,22.15
2023-05-15T08:48:21.062Z,22.52
2023-05-15T08:50:49.163Z,19.45
2023-05-15T08:53:16.134Z,23.80
2023-05-15T08:55:43.280Z,20.83
2023-05-15T08:58:10.461Z,20.38
2023-05-15T09:00:37.926Z,23.95
2023-05-15T09:03:05.680Z,26.08
2023-05-15T09:05:33.344Z,25.92
2023-05-15T09:08:05.459Z,32.50
2023-05-15T09:10:33.511Z,28.73
2023-05-15T09:13:02.600Z,31.55
2023-05-15T09:15:30.856Z,34.13
2023-05-15T09:17:59.055Z,35.85
2023-05-15T09:20:37.530Z,38.80
2023-05-15T09:23:21.439Z,39.65
2023-05-15T09:25:53.128Z,38.88
2023-05-15T09:28:32.047Z,39.63
2023-05-15T09:31:03.375Z,40.67
2023-05-15T09:33:40.145Z,42.88
2023-05-15T09:36:09.652Z,36.67
2023-05-15T09:38:42.667Z,37.95
2023-05-15T09:41:11.397Z,35.95
2023-05-15T09:43:40.367Z,33.63
2023-05-15T09:46:12.944Z,29.65
2023-05-15T09:48:40.087Z,30.17
2023-05-15T09:51:16.884Z,30.52
2023-05-15T09:53:49.903Z,28.77
2023-05-15T09:56:17.864Z,28.15
2023-05-15T09:58:58.442Z,27.95
2023-05-15T10:01:27.347Z,35.20
2023-05-15T10:04:03.088Z,31.55
2023-05-15T10:06:43.150Z,28.95
2023-05-15T10:09:11.354Z,29.40
2023-05-15T10:11:45.285Z,30.63
2023-05-15T10:14:18.865Z,28.58
2023-05-15T10:16:45.997Z,29.65
2023-05-15T10:19:13.832Z,26.33
2023-05-15T10:21:42.096Z,29.85
2023-05-15T10:24:10.754Z,25.42
2023-05-15T10:26:40.268Z,26.40
2023-05-15T10:29:21.181Z,29.15
2023-05-15T10:31:49.816Z,31.02
2023-05-15T10:34:18.558Z,35.92
2023-05-15T10:36:46.119Z,34.33
2023-05-15T10:39:13.005Z,34.92
2023-05-15T10:41:40.609Z,32.85
2023-05-15T10:44:08.032Z,38.25
2023-05-15T10:46:36.743Z,32.58
2023-05-15T10:49:04.955Z,34.53
2023-05-15T10:51:33.456Z,34.70
2023-05-15T10:54:03.655Z,33.35
2023-05-15T10:56:32.671Z,37.13
2023-05-15T10:59:10.280Z,34.40
2023-05-15T11:01:41.194Z,32.63
2023-05-15T11:04:16.136Z,31.17
2023-05-15T11:06:49.032Z,32.60
2023-05-15T11:09:21.835Z,33.50
2023-05-15T11:11:51.771Z,29.63
2023-05-15T11:14:23.958Z,30.27
2023-05-15T11:16:54.025Z,30.05
2023-05-15T11:19:32.879Z,30.30
2023-05-15T11:22:08.915Z,30.60
2023-05-15T11:24:58.482Z,28.67
2023-05-15T11:27:46.356Z,29.55
2023-05-15T11:30:15.875Z,29.83
2023-05-15T11:32:47.580Z,33.58
2023-05-15T11:35:37.201Z,31.85
2023-05-15T11:38:09.718Z,33.20
2023-05-15T11:41:03.174Z,31.20
2023-05-15T11:43:36.314Z,27.10
2023-05-15T11:46:11.014Z,28.08
2023-05-15T11:48:43.872Z,23.63
2023-05-15T11:51:31.624Z,24.92
2023-05-15T11:53:59.038Z,22.23
2023-05-15T11:56:30.407Z,23.70
2023-05-15T11:59:01.124Z,21.25
2023-05-15T12:01:38.444Z,21.77
2023-05-15T12:04:14.134Z,24.73
2023-05-15T12:06:44.444Z,24.10
2023-05-15T12:09:27.059Z,22.25
2023-05-15T12:11:55.924Z,18.92
2023-05-15T12:14:30.539Z,18.45
2023-05-15T12:17:04.428Z,14.32
2023-05-15T12:19:33.255Z,15.05
2023-05-15T12:22:00.217Z,15.38
2023-05-15T12:24:27.261Z,15.52
2023-05-15T12:26:56.027Z,16.67
2023-05-15T12:29:26.322Z,15.23
2023-05-15T12:31:53.933Z,14.75
2023-05-15T12:34:21.779Z,12.27
2023-05-15T12:36:48.766Z,13.63
2023-05-15T12:39:15.780Z,13.13
2023-05-15T12:41:44.010Z,12.00
2023-05-15T12:44:20.957Z,11.82
2023-05-15T12:46:48.109Z,12.63
2023-05-15T12:49:22.696Z,11.20
2023-05-15T12:51:50.003Z,9.40
2023-05-15T12:54:21.021Z,10.80
2023-05-15T12:56:48.671Z,9.60
2023-05-15T12:59:15.741Z,11.63
2023-05-15T13:01:42.743Z,10.73
2023-05-15T13:04:10.400Z,12.60
2023-05-15T13:06:46.491Z,12.50
2023-05-15T13:09:14.192Z,14.27
2023-05-15T13:11:45.008Z,15.52
2023-05-15T13:14:17.106Z,16.38
2023-05-15T13:16:47.356Z,17.63
2023-05-15T13:19:14.581Z,14.77
2023-05-15T13:21:41.464Z,14.43
2023-05-15T13:24:10.549Z,11.75
2023-05-15T13:26:37.865Z,12.82
2023-05-15T13:29:04.831Z,10.93
2023-05-15T13:31:32.399Z,12.75
2023-05-15T13:33:59.274Z,10.32
2023-05-15T13:36:26.073Z,10.43
2023-05-15T13:38:52.913Z,8.88
2023-05-15T13:41:19.710Z,9.70
2023-05-15T13:43:47.882Z,9.07
2023-05-15T13:46:14.922Z,7.72
2023-05-15T13:48:41.668Z,7.00
2023-05-15T13:51:08.477Z,8.98
2023-05-15T13:53:35.897Z,6.95
2023-05-15T13:56:03.301Z,8.65
2023-05-15T13:58:30.168Z,8.30
2023-05-15T14:00:56.979Z,7.38
2023-05-15T14:03:23.907Z,6.97
2023-05-15T14:05:51.761Z,8.50
2023-05-15T14:08:18.670Z,4.18
2023-05-15T14:10:45.528Z,7.07
2023-05-15T14:13:12.519Z,8.00
2023-05-15T14:15:39.335Z,7.13
2023-05-15T14:18:06.189Z,8.77
2023-05-15T14:20:33.043Z,8.13
2023-05-15T14:22:59.837Z,4.60
2023-05-15T14:25:26.644Z,7.68
2023-05-15T14:27:53.465Z,5.88
2023-05-15T14:30:22.951Z,10.68
2023-05-15T14:32:49.860Z,8.40
2023-05-15T14:35:16.687Z,6.93
2023-05-15T14:37:43.835Z,9.40
2023-05-15T14:40:11.386Z,6.35
2023-05-15T14:42:38.231Z,9.77
2023-05-15T14:45:05.530Z,5.60
2023-05-15T14:47:33.569Z,6.65
2023-05-15T14:50:00.456Z,6.05
2023-05-15T14:52:27.250Z,6.68
2023-05-15T14:55:07.908Z,4.25
2023-05-15T14:57:36.951Z,5.40
2023-05-15T15:00:08.132Z,5.40
2023-05-15T15:02:35.172Z,4.03
2023-05-15T15:05:02.265Z,4.20
2023-05-15T15:07:30.643Z,4.18
2023-05-15T15:09:57.569Z,4.30
2023-05-15T15:12:24.330Z,3.60
2023-05-15T15:14:51.135Z,5.28
2023-05-15T15:17:18.310Z,3.88
2023-05-15T15:19:45.057Z,3.22
2023-05-15T15:22:11.888Z,2.28
2023-05-15T15:24:38.622Z,5.47
2023-05-15T15:27:05.834Z,5.80
2023-05-15T15:29:32.639Z,4.57
2023-05-15T15:31:59.508Z,4.03
2023-05-15T15:34:26.763Z,4.28
2023-05-15T15:36:53.562Z,3.78
2023-05-15T15:39:20.340Z,4.15
2023-05-15T15:41:47.176Z,5.90
2023-05-15T15:44:13.919Z,7.80
2023-05-15T15:46:40.848Z,5.95
2023-05-15T15:49:07.836Z,8.13
2023-05-15T15:51:34.725Z,4.65
2023-05-15T15:54:01.540Z,5.22
2023-05-15T15:56:28.377Z,5.15
2023-05-15T15:58:55.273Z,6.22
2023-05-15T16:01:22.316Z,4.90
2023-05-15T16:03:49.495Z,4.75
2023-05-15T16:06:16.635Z,7.65
2023-05-15T16:08:43.560Z,8.80
2023-05-15T16:11:10.461Z,10.25
2023-05-15T16:13:38.310Z,11.40
2023-05-15T16:16:06.726Z,7.30
2023-05-15T16:18:35.030Z,8.45
2023-05-15T16:21:02.178Z,7.50
2023-05-15T16:23:33.518Z,9.10
2023-05-15T16:26:00.458Z,10.15
2023-05-15T16:28:27.271Z,8.88
2023-05-15T16:30:54.353Z,6.47
2023-05-15T16:33:21.377Z,6.85
2023-05-15T16:35:48.229Z,6.47
2023-05-15T16:38:15.731Z,7.10
2023-05-15T16:40:42.769Z,6.80
2023-05-15T16:43:09.659Z,5.05
2023-05-15T16:45:36.573Z,8.35
2023-05-15T16:48:03.886Z,6.00
2023-05-15T16:50:32.375Z,7.28
2023-05-15T16:52:59.553Z,6.50
2023-05-15T16:55:26.826Z,5.00
2023-05-15T16:57:53.636Z,10.38
2023-05-15T17:00:20.985Z,7.53
2023-05-15T17:02:50.453Z,11.55
2023-05-15T17:05:17.634Z,4.28
2023-05-15T17:07:45.155Z,5.70
2023-05-15T17:10:13.684Z,3.28
2023-05-15T17:12:40.673Z,5.93
2023-05-15T17:15:08.243Z,6.70
2023-05-15T17:17:35.394Z,6.45
2023-05-15T17:20:05.677Z,10.00
2023-05-15T17:22:32.518Z,9.00
2023-05-15T17:24:59.357Z,5.70
2023-05-15T17:27:26.225Z,9.63
2023-05-15T17:29:53.275Z,6.80
2023-05-15T17:32:20.237Z,7.57
2023-05-15T17:34:47.557Z,7.53
2023-05-15T17:37:14.886Z,6.80
2023-05-15T17:39:42.173Z,8.27
2023-05-15T17:42:09.314Z,7.03
2023-05-15T17:44:36.296Z,10.30
2023-05-15T17:47:03.386Z,9.82
2023-05-15T17:49:30.614Z,10.10
2023-05-15T17:51:57.441Z,10.77
2023-05-15T17:54:24.283Z,13.13
2023-05-15T17:56:51.123Z,7.45
2023-05-15T17:59:17.975Z,11.02
2023-05-15T18:01:45.070Z,10.68
2023-05-15T18:04:12.150Z,8.57
2023-05-15T18:06:39.208Z,10.48
2023-05-15T18:09:06.053Z,10.75
2023-05-15T18:11:32.851Z,10.43
2023-05-15T18:13:59.698Z,9.15
2023-05-15T18:16:26.866Z,13.00
2023-05-15T18:18:54.097Z,13.23
2023-05-15T18:21:20.994Z,8.13
2023-05-15T18:23:47.902Z,15.02
2023-05-15T18:26:14.871Z,13.02
2023-05-15T18:28:41.803Z,7.30
2023-05-15T18:31:08.850Z,9.38
2023-05-15T18:33:36.016Z,6.00
2023-05-15T18:36:05.281Z,8.52
2023-05-15T18:38:33.703Z,6.43
2023-05-15T18:41:00.646Z,7.22
2023-05-15T18:43:27.601Z,6.82
2023-05-15T18:45:54.777Z,8.27
2023-05-15T18:48:21.588Z,7.95
2023-05-15T18:50:48.528Z,4.68
2023-05-15T18:53:15.489Z,5.90
2023-05-15T18:55:42.359Z,5.25
2023-05-15T18:58:09.133Z,7.25
2023-05-15T19:00:38.494Z,3.20
2023-05-15T19:03:08.553Z,5.18
2023-05-15T19:05:35.837Z,2.90
2023-05-15T19:08:03.113Z,3.28
2023-05-15T19:10:30.599Z,2.65
2023-05-15T19:12:57.942Z,3.42
2023-05-15T19:15:25.811Z,5.95
2023-05-15T19:17:52.906Z,2.47
2023-05-15T19:20:20.457Z,3.58
2023-05-15T19:22:47.254Z,6.07
2023-05-15T19:25:14.270Z,5.97
2023-05-15T19:27:41.314Z,6.22
2023-05-15T19:30:09.808Z,5.80
2023-05-15T19:32:37.902Z,5.78
2023-05-15T19:35:05.693Z,6.75
2023-05-15T19:37:32.711Z,6.32
2023-05-15T19:39:59.862Z,6.25
2023-05-15T19:42:26.842Z,5.20
2023-05-15T19:44:53.702Z,6.03
2023-05-15T19:47:20.585Z,5.45
2023-05-15T19:49:47.471Z,5.07
2023-05-15T19:52:15.951Z,3.38
2023-05-15T19:54:42.809Z,9.65
2023-05-15T19:57:09.585Z,7.45
2023-05-15T19:59:36.372Z,8.07
2023-05-15T20:02:03.450Z,4.53
2023-05-15T20:04:32.495Z,6.68
2023-05-15T20:06:59.295Z,5.88
2023-05-15T20:09:26.074Z,8.05
2023-05-15T20:11:53.013Z,6.40
2023-05-15T20:14:19.932Z,7.38
2023-05-15T20:16:46.819Z,4.78
2023-05-15T20:19:13.896Z,9.00
2023-05-15T20:21:40.873Z,6.68
2023-05-15T20:24:07.973Z,8.63
2023-05-15T20:26:37.636Z,7.05
2023-05-15T20:29:04.471Z,8.52
2023-05-15T20:31:31.406Z,7.18
2023-05-15T20:33:59.053Z,5.55
2023-05-15T20:36:26.061Z,8.48
2023-05-15T20:38:53.076Z,9.13
2023-05-15T20:41:22.293Z,6.30
2023-05-15T20:43:50.099Z,6.95
2023-05-15T20:46:17.042Z,7.65
2023-05-15T20:48:44.080Z,10.77
2023-05-15T20:51:10.990Z,7.32
2023-05-15T20:53:37.782Z,9.73
2023-05-15T20:56:04.731Z,7.15
2023-05-15T20:58:31.636Z,8.88
2023-05-15T21:01:00.822Z,9.25
2023-05-15T21:03:29.095Z,11.38
2023-05-15T21:05:57.547Z,11.27
2023-05-15T21:08:24.878Z,12.50
2023-05-15T21:10:55.288Z,9.40
2023-05-15T21:13:22.293Z,9.63
2023-05-15T21:15:49.121Z,12.15
2023-05-15T21:18:16.143Z,9.68
2023-05-15T21:20:42.975Z,9.65
2023-05-15T21:23:09.785Z,9.73
2023-05-15T21:25:37.825Z,10.35
2023-05-15T21:28:04.959Z,12.30
2023-05-15T21:30:31.864Z,9.63
2023-05-15T21:32:59.053Z,11.63
2023-05-15T21:35:28.687Z,9.20
2023-05-15T21:37:55.533Z,10.95
2023-05-15T21:40:22.393Z,12.55
2023-05-15T21:42:49.283Z,12.30
2023-05-15T21:45:16.195Z,10.80
2023-05-15T21:47:43.058Z,13.02
2023-05-15T21:50:10.436Z,15.20
2023-05-15T21:52:37.174Z,11.88
2023-05-15T21:55:04.370Z,13.43
2023-05-15T21:57:31.101Z,12.50
2023-05-15T21:59:57.856Z,17.40
2023-05-15T22:02:24.695Z,13.48
2023-05-15T22:04:51.488Z,13.10
2023-05-15T22:07:18.474Z,13.15
2023-05-15T22:09:45.448Z,13.80
2023-05-15T22:12:12.876Z,13.07
2023-05-15T22:14:47.020Z,10.95
2023-05-15T22:17:26.345Z,9.57
2023-05-15T22:19:53.657Z,12.10
2023-05-15T22:22:20.817Z,11.35
2023-05-15T22:24:47.870Z,12.10
2023-05-15T22:27:16.628Z,8.30
2023-05-15T22:29:43.490Z,9.88
2023-05-15T22:32:10.430Z,13.80
2023-05-15T22:34:37.264Z,9.75
2023-05-15T22:37:04.325Z,15.48
2023-05-15T22:39:31.098Z,9.73
2023-05-15T22:41:57.857Z,12.70
2023-05-15T22:44:24.622Z,15.63
2023-05-15T22:46:51.398Z,15.52
2023-05-15T22:49:25.234Z,11.23
2023-05-15T22:51:56.730Z,15.27
2023-05-15T22:54:23.817Z,12.45
2023-05-15T22:56:52.108Z,13.93
2023-05-15T22:59:19.985Z,10.88
2023-05-15T23:01:47.573Z,9.95
2023-05-15T23:04:15.294Z,8.98
2023-05-15T23:06:42.482Z,10.35
2023-05-15T23:09:09.523Z,10.98
2023-05-15T23:11:37.665Z,10.15
2023-05-15T23:14:04.628Z,12.93
2023-05-15T23:16:31.728Z,10.50
2023-05-15T23:18:58.726Z,15.93
2023-05-15T23:21:25.977Z,16.02
2023-05-15T23:23:52.810Z,12.10
2023-05-15T23:26:19.723Z,12.13
2023-05-15T23:28:46.983Z,11.55
2023-05-15T23:31:14.285Z,11.05
2023-05-15T23:33:41.381Z,9.75
2023-05-15T23:36:08.715Z,12.75
2023-05-15T23:38:35.646Z,13.48
2023-05-15T23:41:02.631Z,12.10
2023-05-15T23:43:29.789Z,9.50
2023-05-15T23:45:56.615Z,19.40
2023-05-15T23:48:23.548Z,11.50
2023-05-15T23:50:51.521Z,15.43
2023-05-15T23:53:18.442Z,10.23
2023-05-15T23:55:45.314Z,12.35
2023-05-15T23:58:12.137Z,16.92
